sensor_id;sensor_type;location;lat;lon;timestamp;temperature;humidity
26035;DHT22;13809;48.632;11.576;2022-08-23T00:00:47;19.90;31.10
26035;DHT22;13809;48.632;11.576;2022-08-23T00:05:53;19.90;31.40
26035;DHT22;13809;48.632;11.576;2022-08-23T00:10:57;19.80;30.90
26035;DHT22;13809;48.632;11.576;2022-08-23T00:16:02;19.70;31.30
26035;DHT22;13809;48.632;11.576;2022-08-23T00:21:06;19.70;31.90
26035;DHT22;13809;48.632;11.576;2022-08-23T00:26:11;19.60;31.90
26035;DHT22;13809;48.632;11.576;2022-08-23T00:31:16;19.50;31.40
26035;DHT22;13809;48.632;11.576;2022-08-23T00:36:19;19.30;31.80
26035;DHT22;13809;48.632;11.576;2022-08-23T00:41:22;19.20;31.70
26035;DHT22;13809;48.632;11.576;2022-08-23T00:46:39;19.20;31.70
26035;DHT22;13809;48.632;11.576;2022-08-23T00:52:08;19.10;33.10
26035;DHT22;13809;48.632;11.576;2022-08-23T00:57:15;19.00;32.30
26035;DHT22;13809;48.632;11.576;2022-08-23T01:02:21;19.00;32.50
26035;DHT22;13809;48.632;11.576;2022-08-23T01:07:33;18.90;32.40
26035;DHT22;13809;48.632;11.576;2022-08-23T01:12:41;18.90;33.70
26035;DHT22;13809;48.632;11.576;2022-08-23T01:17:50;18.90;32.70
26035;DHT22;13809;48.632;11.576;2022-08-23T01:23:01;18.80;32.90
26035;DHT22;13809;48.632;11.576;2022-08-23T01:28:06;18.80;33.00
26035;DHT22;13809;48.632;11.576;2022-08-23T01:33:09;18.80;32.70
26035;DHT22;13809;48.632;11.576;2022-08-23T01:38:13;18.70;32.40
26035;DHT22;13809;48.632;11.576;2022-08-23T01:43:21;18.70;32.50
26035;DHT22;13809;48.632;11.576;2022-08-23T01:48:25;18.60;32.90
26035;DHT22;13809;48.632;11.576;2022-08-23T01:53:40;18.60;32.50
26035;DHT22;13809;48.632;11.576;2022-08-23T01:58:55;18.50;33.80
26035;DHT22;13809;48.632;11.576;2022-08-23T02:04:00;18.40;33.20
26035;DHT22;13809;48.632;11.576;2022-08-23T02:09:06;18.30;32.70
26035;DHT22;13809;48.632;11.576;2022-08-23T02:14:20;18.20;33.00
26035;DHT22;13809;48.632;11.576;2022-08-23T02:19:24;18.20;33.70
26035;DHT22;13809;48.632;11.576;2022-08-23T02:24:27;18.10;33.30
26035;DHT22;13809;48.632;11.576;2022-08-23T02:29:34;18.10;33.20
26035;DHT22;13809;48.632;11.576;2022-08-23T02:34:41;18.00;33.60
26035;DHT22;13809;48.632;11.576;2022-08-23T02:39:44;18.00;33.20
26035;DHT22;13809;48.632;11.576;2022-08-23T02:44:49;17.80;33.20
26035;DHT22;13809;48.632;11.576;2022-08-23T02:49:52;17.80;34.20
26035;DHT22;13809;48.632;11.576;2022-08-23T02:54:55;17.60;33.60
26035;DHT22;13809;48.632;11.576;2022-08-23T03:00:00;17.60;33.70
26035;DHT22;13809;48.632;11.576;2022-08-23T03:05:05;17.60;34.40
26035;DHT22;13809;48.632;11.576;2022-08-23T03:10:09;17.60;34.40
26035;DHT22;13809;48.632;11.576;2022-08-23T03:15:14;17.50;34.20
26035;DHT22;13809;48.632;11.576;2022-08-23T03:20:19;17.50;34.30
26035;DHT22;13809;48.632;11.576;2022-08-23T03:25:26;17.40;34.20
26035;DHT22;13809;48.632;11.576;2022-08-23T03:30:31;17.40;34.20
26035;DHT22;13809;48.632;11.576;2022-08-23T03:35:35;17.40;34.20
26035;DHT22;13809;48.632;11.576;2022-08-23T03:40:38;17.30;34.10
26035;DHT22;13809;48.632;11.576;2022-08-23T03:45:43;17.20;34.00
26035;DHT22;13809;48.632;11.576;2022-08-23T03:50:46;17.10;34.20
26035;DHT22;13809;48.632;11.576;2022-08-23T03:55:51;17.10;34.00
26035;DHT22;13809;48.632;11.576;2022-08-23T04:00:57;17.10;34.30
26035;DHT22;13809;48.632;11.576;2022-08-23T04:06:00;17.10;34.60
26035;DHT22;13809;48.632;11.576;2022-08-23T04:11:04;17.10;34.00
26035;DHT22;13809;48.632;11.576;2022-08-23T04:16:10;17.00;33.90
26035;DHT22;13809;48.632;11.576;2022-08-23T04:21:16;17.00;34.50
26035;DHT22;13809;48.632;11.576;2022-08-23T04:26:20;17.00;34.70
26035;DHT22;13809;48.632;11.576;2022-08-23T04:31:31;16.90;33.80
26035;DHT22;13809;48.632;11.576;2022-08-23T04:36:38;16.80;34.70
26035;DHT22;13809;48.632;11.576;2022-08-23T04:41:55;16.80;34.90
26035;DHT22;13809;48.632;11.576;2022-08-23T04:47:20;16.80;34.60
26035;DHT22;13809;48.632;11.576;2022-08-23T04:52:24;16.80;35.70
26035;DHT22;13809;48.632;11.576;2022-08-23T04:57:28;16.80;34.80
26035;DHT22;13809;48.632;11.576;2022-08-23T05:02:35;16.70;34.70
26035;DHT22;13809;48.632;11.576;2022-08-23T05:07:39;16.70;35.80
26035;DHT22;13809;48.632;11.576;2022-08-23T05:12:44;16.70;35.00
26035;DHT22;13809;48.632;11.576;2022-08-23T05:17:49;16.60;35.20
26035;DHT22;13809;48.632;11.576;2022-08-23T05:22:53;16.60;35.90
26035;DHT22;13809;48.632;11.576;2022-08-23T05:27:57;16.60;35.60
26035;DHT22;13809;48.632;11.576;2022-08-23T05:33:03;16.60;35.90
26035;DHT22;13809;48.632;11.576;2022-08-23T05:38:07;16.60;36.60
26035;DHT22;13809;48.632;11.576;2022-08-23T05:43:12;16.60;36.30
26035;DHT22;13809;48.632;11.576;2022-08-23T05:48:17;16.60;36.50
26035;DHT22;13809;48.632;11.576;2022-08-23T05:53:33;16.60;37.40
26035;DHT22;13809;48.632;11.576;2022-08-23T05:58:37;16.70;38.50
26035;DHT22;13809;48.632;11.576;2022-08-23T06:03:42;16.70;37.20
26035;DHT22;13809;48.632;11.576;2022-08-23T06:08:47;16.80;38.20
26035;DHT22;13809;48.632;11.576;2022-08-23T06:13:52;16.80;38.20
26035;DHT22;13809;48.632;11.576;2022-08-23T06:19:00;16.90;38.40
26035;DHT22;13809;48.632;11.576;2022-08-23T06:24:04;17.00;39.30
26035;DHT22;13809;48.632;11.576;2022-08-23T06:29:12;17.10;38.90
26035;DHT22;13809;48.632;11.576;2022-08-23T06:34:19;17.20;39.50
26035;DHT22;13809;48.632;11.576;2022-08-23T06:39:27;17.30;40.90
26035;DHT22;13809;48.632;11.576;2022-08-23T06:44:39;17.40;40.70
26035;DHT22;13809;48.632;11.576;2022-08-23T06:49:45;17.60;40.60
26035;DHT22;13809;48.632;11.576;2022-08-23T06:54:59;17.70;40.50
26035;DHT22;13809;48.632;11.576;2022-08-23T07:00:04;17.90;39.60
26035;DHT22;13809;48.632;11.576;2022-08-23T07:05:12;18.10;40.00
26035;DHT22;13809;48.632;11.576;2022-08-23T07:10:17;18.30;40.20
26035;DHT22;13809;48.632;11.576;2022-08-23T07:15:21;18.40;39.70
26035;DHT22;13809;48.632;11.576;2022-08-23T07:20:33;18.60;39.70
26035;DHT22;13809;48.632;11.576;2022-08-23T07:25:39;18.70;40.80
26035;DHT22;13809;48.632;11.576;2022-08-23T07:30:43;18.90;40.00
26035;DHT22;13809;48.632;11.576;2022-08-23T07:35:48;19.10;39.90
26035;DHT22;13809;48.632;11.576;2022-08-23T07:40:52;19.20;40.10
26035;DHT22;13809;48.632;11.576;2022-08-23T07:46:06;19.40;39.40
26035;DHT22;13809;48.632;11.576;2022-08-23T07:51:14;19.60;39.70
26035;DHT22;13809;48.632;11.576;2022-08-23T07:56:19;19.90;40.00
26035;DHT22;13809;48.632;11.576;2022-08-23T08:01:27;20.10;39.60
26035;DHT22;13809;48.632;11.576;2022-08-23T08:06:34;20.40;39.20
26035;DHT22;13809;48.632;11.576;2022-08-23T08:11:42;20.70;38.20
26035;DHT22;13809;48.632;11.576;2022-08-23T08:16:47;21.00;37.40
26035;DHT22;13809;48.632;11.576;2022-08-23T08:21:52;21.40;38.00
26035;DHT22;13809;48.632;11.576;2022-08-23T08:26:55;21.70;38.00
26035;DHT22;13809;48.632;11.576;2022-08-23T08:31:59;22.00;38.30
26035;DHT22;13809;48.632;11.576;2022-08-23T08:37:03;22.30;37.40
26035;DHT22;13809;48.632;11.576;2022-08-23T08:42:22;22.60;36.80
26035;DHT22;13809;48.632;11.576;2022-08-23T08:47:32;22.90;36.50
26035;DHT22;13809;48.632;11.576;2022-08-23T08:52:40;23.20;35.90
26035;DHT22;13809;48.632;11.576;2022-08-23T08:57:47;23.60;35.80
26035;DHT22;13809;48.632;11.576;2022-08-23T09:02:51;23.80;35.40
26035;DHT22;13809;48.632;11.576;2022-08-23T09:08:05;24.10;34.90
26035;DHT22;13809;48.632;11.576;2022-08-23T09:18:48;24.60;33.90
26035;DHT22;13809;48.632;11.576;2022-08-23T09:23:52;24.80;34.10
26035;DHT22;13809;48.632;11.576;2022-08-23T09:29:06;25.00;33.00
26035;DHT22;13809;48.632;11.576;2022-08-23T09:34:17;25.20;33.10
26035;DHT22;13809;48.632;11.576;2022-08-23T09:39:28;25.40;33.10
26035;DHT22;13809;48.632;11.576;2022-08-23T09:44:37;25.60;31.10
26035;DHT22;13809;48.632;11.576;2022-08-23T09:49:43;25.70;30.40
26035;DHT22;13809;48.632;11.576;2022-08-23T09:54:58;25.90;30.60
26035;DHT22;13809;48.632;11.576;2022-08-23T10:00:22;26.10;29.30
26035;DHT22;13809;48.632;11.576;2022-08-23T10:05:30;26.30;27.70
26035;DHT22;13809;48.632;11.576;2022-08-23T10:10:43;26.40;29.40
26035;DHT22;13809;48.632;11.576;2022-08-23T10:16:01;26.40;29.30
26035;DHT22;13809;48.632;11.576;2022-08-23T10:21:09;26.60;28.80
26035;DHT22;13809;48.632;11.576;2022-08-23T10:26:25;26.90;29.10
26035;DHT22;13809;48.632;11.576;2022-08-23T10:31:34;27.10;28.30
26035;DHT22;13809;48.632;11.576;2022-08-23T10:36:50;27.30;28.10
26035;DHT22;13809;48.632;11.576;2022-08-23T10:42:00;27.50;28.00
26035;DHT22;13809;48.632;11.576;2022-08-23T10:47:16;27.60;27.30
26035;DHT22;13809;48.632;11.576;2022-08-23T10:52:24;27.80;26.60
26035;DHT22;13809;48.632;11.576;2022-08-23T10:57:33;27.80;26.00
26035;DHT22;13809;48.632;11.576;2022-08-23T11:02:45;27.80;26.40
26035;DHT22;13809;48.632;11.576;2022-08-23T11:08:01;27.90;25.90
26035;DHT22;13809;48.632;11.576;2022-08-23T11:13:19;27.90;26.10
26035;DHT22;13809;48.632;11.576;2022-08-23T11:18:41;28.00;26.50
26035;DHT22;13809;48.632;11.576;2022-08-23T11:23:48;28.00;26.20
26035;DHT22;13809;48.632;11.576;2022-08-23T11:28:55;28.10;26.30
26035;DHT22;13809;48.632;11.576;2022-08-23T11:34:21;28.10;26.00
26035;DHT22;13809;48.632;11.576;2022-08-23T11:40:04;28.10;26.20
26035;DHT22;13809;48.632;11.576;2022-08-23T11:45:23;28.20;25.90
26035;DHT22;13809;48.632;11.576;2022-08-23T11:50:34;28.30;25.50
26035;DHT22;13809;48.632;11.576;2022-08-23T12:01:26;28.50;24.80
26035;DHT22;13809;48.632;11.576;2022-08-23T12:06:39;28.50;24.90
26035;DHT22;13809;48.632;11.576;2022-08-23T12:12:23;28.50;24.40
26035;DHT22;13809;48.632;11.576;2022-08-23T12:18:10;28.60;25.50
26035;DHT22;13809;48.632;11.576;2022-08-23T12:23:19;28.60;25.40
26035;DHT22;13809;48.632;11.576;2022-08-23T12:28:32;28.70;24.80
26035;DHT22;13809;48.632;11.576;2022-08-23T12:33:48;28.70;24.60
26035;DHT22;13809;48.632;11.576;2022-08-23T12:38:59;28.70;24.40
26035;DHT22;13809;48.632;11.576;2022-08-23T12:44:06;28.70;24.40
26035;DHT22;13809;48.632;11.576;2022-08-23T12:49:27;28.70;24.50
26035;DHT22;13809;48.632;11.576;2022-08-23T12:54:34;28.70;24.60
26035;DHT22;13809;48.632;11.576;2022-08-23T12:59:40;28.70;24.10
26035;DHT22;13809;48.632;11.576;2022-08-23T13:04:46;28.70;23.70
26035;DHT22;13809;48.632;11.576;2022-08-23T13:09:50;28.70;24.10
26035;DHT22;13809;48.632;11.576;2022-08-23T13:14:56;28.80;24.40
26035;DHT22;13809;48.632;11.576;2022-08-23T13:20:19;28.80;23.70
26035;DHT22;13809;48.632;11.576;2022-08-23T13:25:24;28.80;22.30
26035;DHT22;13809;48.632;11.576;2022-08-23T13:30:34;28.90;22.50
26035;DHT22;13809;48.632;11.576;2022-08-23T13:35:41;28.90;22.50
26035;DHT22;13809;48.632;11.576;2022-08-23T13:40:58;29.00;21.50
26035;DHT22;13809;48.632;11.576;2022-08-23T13:46:11;29.00;20.60
26035;DHT22;13809;48.632;11.576;2022-08-23T13:51:26;29.00;20.60
26035;DHT22;13809;48.632;11.576;2022-08-23T13:56:34;29.00;20.40
26035;DHT22;13809;48.632;11.576;2022-08-23T14:01:38;29.10;20.60
26035;DHT22;13809;48.632;11.576;2022-08-23T14:06:43;29.10;21.00
26035;DHT22;13809;48.632;11.576;2022-08-23T14:11:52;29.20;20.70
26035;DHT22;13809;48.632;11.576;2022-08-23T14:16:56;29.20;20.70
26035;DHT22;13809;48.632;11.576;2022-08-23T14:22:05;29.20;20.70
26035;DHT22;13809;48.632;11.576;2022-08-23T14:27:08;29.20;20.70
26035;DHT22;13809;48.632;11.576;2022-08-23T14:32:12;29.30;20.80
26035;DHT22;13809;48.632;11.576;2022-08-23T14:37:16;29.30;20.70
26035;DHT22;13809;48.632;11.576;2022-08-23T14:42:40;29.40;19.90
26035;DHT22;13809;48.632;11.576;2022-08-23T14:47:43;29.40;20.20
26035;DHT22;13809;48.632;11.576;2022-08-23T14:52:48;29.50;20.00
26035;DHT22;13809;48.632;11.576;2022-08-23T14:57:51;29.50;18.60
26035;DHT22;13809;48.632;11.576;2022-08-23T15:02:56;29.50;19.70
26035;DHT22;13809;48.632;11.576;2022-08-23T15:08:00;29.60;19.50
26035;DHT22;13809;48.632;11.576;2022-08-23T15:13:04;29.60;19.10
26035;DHT22;13809;48.632;11.576;2022-08-23T15:18:28;29.60;19.30
26035;DHT22;13809;48.632;11.576;2022-08-23T15:23:33;29.70;19.20
26035;DHT22;13809;48.632;11.576;2022-08-23T15:28:37;29.80;18.50
26035;DHT22;13809;48.632;11.576;2022-08-23T15:33:41;29.80;18.50
26035;DHT22;13809;48.632;11.576;2022-08-23T15:38:46;29.80;18.60
26035;DHT22;13809;48.632;11.576;2022-08-23T15:43:50;29.80;17.70
26035;DHT22;13809;48.632;11.576;2022-08-23T15:48:56;29.80;18.40
26035;DHT22;13809;48.632;11.576;2022-08-23T15:54:01;29.90;17.90
26035;DHT22;13809;48.632;11.576;2022-08-23T15:59:07;29.90;17.00
26035;DHT22;13809;48.632;11.576;2022-08-23T16:04:12;29.90;16.80
26035;DHT22;13809;48.632;11.576;2022-08-23T16:09:20;29.90;17.50
26035;DHT22;13809;48.632;11.576;2022-08-23T16:14:24;29.90;16.10
26035;DHT22;13809;48.632;11.576;2022-08-23T16:19:28;29.90;16.90
26035;DHT22;13809;48.632;11.576;2022-08-23T16:24:32;29.90;16.60
26035;DHT22;13809;48.632;11.576;2022-08-23T16:29:35;29.90;16.20
26035;DHT22;13809;48.632;11.576;2022-08-23T16:34:39;29.90;16.70
26035;DHT22;13809;48.632;11.576;2022-08-23T16:39:44;29.90;16.80
26035;DHT22;13809;48.632;11.576;2022-08-23T16:44:48;29.90;16.10
26035;DHT22;13809;48.632;11.576;2022-08-23T16:49:51;30.00;16.50
26035;DHT22;13809;48.632;11.576;2022-08-23T16:54:56;30.00;16.80
26035;DHT22;13809;48.632;11.576;2022-08-23T16:59:59;30.00;16.60
26035;DHT22;13809;48.632;11.576;2022-08-23T17:05:03;30.00;16.80
26035;DHT22;13809;48.632;11.576;2022-08-23T17:10:09;30.00;16.90
26035;DHT22;13809;48.632;11.576;2022-08-23T17:15:15;30.00;16.40
26035;DHT22;13809;48.632;11.576;2022-08-23T17:20:23;30.00;17.60
26035;DHT22;13809;48.632;11.576;2022-08-23T17:25:28;29.90;17.10
26035;DHT22;13809;48.632;11.576;2022-08-23T17:30:31;29.80;17.20
26035;DHT22;13809;48.632;11.576;2022-08-23T17:35:35;29.70;18.00
26035;DHT22;13809;48.632;11.576;2022-08-23T17:40:40;29.60;17.70
26035;DHT22;13809;48.632;11.576;2022-08-23T17:45:45;29.40;18.20
26035;DHT22;13809;48.632;11.576;2022-08-23T17:50:49;29.30;18.30
26035;DHT22;13809;48.632;11.576;2022-08-23T17:55:54;29.20;18.80
26035;DHT22;13809;48.632;11.576;2022-08-23T18:00:58;29.00;19.10
26035;DHT22;13809;48.632;11.576;2022-08-23T18:06:02;28.90;19.30
26035;DHT22;13809;48.632;11.576;2022-08-23T18:11:19;28.80;19.50
26035;DHT22;13809;48.632;11.576;2022-08-23T18:16:22;28.60;19.70
26035;DHT22;13809;48.632;11.576;2022-08-23T18:21:36;28.50;19.80
26035;DHT22;13809;48.632;11.576;2022-08-23T18:26:41;28.30;19.80
26035;DHT22;13809;48.632;11.576;2022-08-23T18:32:04;28.20;19.70
26035;DHT22;13809;48.632;11.576;2022-08-23T18:37:07;27.90;20.00
26035;DHT22;13809;48.632;11.576;2022-08-23T18:42:12;27.70;20.70
26035;DHT22;13809;48.632;11.576;2022-08-23T18:47:16;27.60;21.20
26035;DHT22;13809;48.632;11.576;2022-08-23T18:52:19;27.30;20.80
26035;DHT22;13809;48.632;11.576;2022-08-23T18:57:24;27.10;21.10
26035;DHT22;13809;48.632;11.576;2022-08-23T19:02:27;26.90;21.80
26035;DHT22;13809;48.632;11.576;2022-08-23T19:07:30;26.70;21.80
26035;DHT22;13809;48.632;11.576;2022-08-23T19:12:35;26.50;21.70
26035;DHT22;13809;48.632;11.576;2022-08-23T19:17:52;26.20;22.10
26035;DHT22;13809;48.632;11.576;2022-08-23T19:22:56;26.00;22.10
26035;DHT22;13809;48.632;11.576;2022-08-23T19:28:00;25.90;22.60
26035;DHT22;13809;48.632;11.576;2022-08-23T19:33:04;25.60;22.70
26035;DHT22;13809;48.632;11.576;2022-08-23T19:38:07;25.20;23.00
26035;DHT22;13809;48.632;11.576;2022-08-23T19:43:12;24.90;23.20
26035;DHT22;13809;48.632;11.576;2022-08-23T19:48:15;24.60;23.70
26035;DHT22;13809;48.632;11.576;2022-08-23T19:53:20;24.40;23.70
26035;DHT22;13809;48.632;11.576;2022-08-23T19:58:24;24.30;24.10
26035;DHT22;13809;48.632;11.576;2022-08-23T20:03:28;24.10;24.50
26035;DHT22;13809;48.632;11.576;2022-08-23T20:08:31;24.10;24.30
26035;DHT22;13809;48.632;11.576;2022-08-23T20:13:36;24.00;24.60
26035;DHT22;13809;48.632;11.576;2022-08-23T20:18:39;23.90;25.10
26035;DHT22;13809;48.632;11.576;2022-08-23T20:23:43;23.80;24.90
26035;DHT22;13809;48.632;11.576;2022-08-23T20:29:08;23.70;25.10
26035;DHT22;13809;48.632;11.576;2022-08-23T20:34:12;23.60;25.60
26035;DHT22;13809;48.632;11.576;2022-08-23T20:39:15;23.50;25.30
26035;DHT22;13809;48.632;11.576;2022-08-23T20:44:26;23.30;25.50
26035;DHT22;13809;48.632;11.576;2022-08-23T20:49:32;23.10;25.90
26035;DHT22;13809;48.632;11.576;2022-08-23T20:54:40;22.90;26.40
26035;DHT22;13809;48.632;11.576;2022-08-23T20:59:44;22.80;26.00
26035;DHT22;13809;48.632;11.576;2022-08-23T21:04:48;22.70;27.00
26035;DHT22;13809;48.632;11.576;2022-08-23T21:09:51;22.60;26.50
26035;DHT22;13809;48.632;11.576;2022-08-23T21:14:56;22.60;26.80
26035;DHT22;13809;48.632;11.576;2022-08-23T21:19:59;22.50;27.00
26035;DHT22;13809;48.632;11.576;2022-08-23T21:25:03;22.40;26.90
26035;DHT22;13809;48.632;11.576;2022-08-23T21:30:09;22.30;26.90
26035;DHT22;13809;48.632;11.576;2022-08-23T21:35:12;22.20;27.60
26035;DHT22;13809;48.632;11.576;2022-08-23T21:40:15;22.10;26.70
26035;DHT22;13809;48.632;11.576;2022-08-23T21:45:20;22.10;26.80
26035;DHT22;13809;48.632;11.576;2022-08-23T21:50:24;22.00;27.60
26035;DHT22;13809;48.632;11.576;2022-08-23T21:55:29;22.00;27.30
26035;DHT22;13809;48.632;11.576;2022-08-23T22:00:40;22.00;27.40
26035;DHT22;13809;48.632;11.576;2022-08-23T22:05:44;21.90;28.00
26035;DHT22;13809;48.632;11.576;2022-08-23T22:10:47;21.90;27.90
26035;DHT22;13809;48.632;11.576;2022-08-23T22:16:00;21.80;27.80
26035;DHT22;13809;48.632;11.576;2022-08-23T22:21:04;21.80;28.20
26035;DHT22;13809;48.632;11.576;2022-08-23T22:26:08;21.70;28.20
26035;DHT22;13809;48.632;11.576;2022-08-23T22:31:13;21.60;27.90
26035;DHT22;13809;48.632;11.576;2022-08-23T22:36:19;21.50;28.80
26035;DHT22;13809;48.632;11.576;2022-08-23T22:41:25;21.40;28.90
26035;DHT22;13809;48.632;11.576;2022-08-23T22:46:32;21.30;28.90
26035;DHT22;13809;48.632;11.576;2022-08-23T22:51:36;21.20;29.10
26035;DHT22;13809;48.632;11.576;2022-08-23T22:56:42;21.20;28.80
26035;DHT22;13809;48.632;11.576;2022-08-23T23:01:49;21.20;29.40
26035;DHT22;13809;48.632;11.576;2022-08-23T23:06:54;21.10;29.50
26035;DHT22;13809;48.632;11.576;2022-08-23T23:11:57;21.10;29.20
26035;DHT22;13809;48.632;11.576;2022-08-23T23:17:02;21.00;29.20
26035;DHT22;13809;48.632;11.576;2022-08-23T23:22:06;20.90;29.60
26035;DHT22;13809;48.632;11.576;2022-08-23T23:27:09;20.90;29.50
26035;DHT22;13809;48.632;11.576;2022-08-23T23:32:14;20.80;29.40
26035;DHT22;13809;48.632;11.576;2022-08-23T23:37:19;20.80;30.30
26035;DHT22;13809;48.632;11.576;2022-08-23T23:42:22;20.70;29.60
26035;DHT22;13809;48.632;11.576;2022-08-23T23:47:26;20.70;29.70
26035;DHT22;13809;48.632;11.576;2022-08-23T23:52:29;20.60;30.00
26035;DHT22;13809;48.632;11.576;2022-08-23T23:57:33;20.60;29.70
